Time;durP1;ratioP1;P1;durP2;ratioP2;P2;SDS_P1;SDS_P2;PMS_P1;PMS_P2;Temp;Humidity;BMP_temperature;BMP_pressure;BME280_temperature;BME280_humidity;BME280_pressure;Samples;Min_cycle;Max_cycle;Signal;HPM_P1;HPM_P2
2021/06/20 00:00:16;;;;;;;0.00;0.00;;;;;;;;;;5088034;28;20199;-70
2021/06/20 00:02:42;;;;;;;0.00;0.00;;;;;;;;;;5103597;28;20240;-70
2021/06/20 00:05:10;;;;;;;0.00;0.00;;;;;;;;;;5089259;28;20203;-70
2021/06/20 00:07:38;;;;;;;0.00;0.00;;;;;;;;;;5104020;28;20332;-70
2021/06/20 00:10:04;;;;;;;0.00;0.00;;;;;;;;;;5089326;28;20227;-70
2021/06/20 00:12:31;;;;;;;0.00;0.00;;;;;;;;;;5103575;28;20260;-69
2021/06/20 00:14:57;;;;;;;0.00;0.00;;;;;;;;;;5103313;28;20203;-70
2021/06/20 00:17:23;;;;;;;0.00;0.00;;;;;;;;;;5103648;28;20198;-70
2021/06/20 00:19:50;;;;;;;0.00;0.00;;;;;;;;;;5091892;28;20207;-71
2021/06/20 00:22:16;;;;;;;0.00;0.00;;;;;;;;;;5101044;28;20474;-70
2021/06/20 00:24:43;;;;;;;0.00;0.00;;;;;;;;;;5103238;28;20272;-70
2021/06/20 00:27:09;;;;;;;0.00;0.00;;;;;;;;;;5103357;28;20207;-70
2021/06/20 00:29:36;;;;;;;0.00;0.00;;;;;;;;;;5103551;28;20207;-70
2021/06/20 00:32:02;;;;;;;0.00;0.00;;;;;;;;;;5103537;28;20486;-72
2021/06/20 00:34:28;;;;;;;0.00;0.00;;;;;;;;;;5103320;28;20226;-70
2021/06/20 00:36:55;;;;;;;0.00;0.00;;;;;;;;;;5103231;28;20203;-70
2021/06/20 00:39:21;;;;;;;0.00;0.00;;;;;;;;;;5103313;28;20230;-71
2021/06/20 00:41:48;;;;;;;0.00;0.00;;;;;;;;;;5097272;28;20402;-70
2021/06/20 00:44:15;;;;;;;0.00;0.00;;;;;;;;;;5095511;28;20256;-71
2021/06/20 00:46:41;;;;;;;0.00;0.00;;;;;;;;;;5088787;28;20220;-70
2021/06/20 00:49:07;;;;;;;0.00;0.00;;;;;;;;;;5102872;28;20560;-70
2021/06/20 00:51:33;;;;;;;0.00;0.00;;;;;;;;;;5103217;28;20236;-70
2021/06/20 00:54:00;;;;;;;0.00;0.00;;;;;;;;;;5102804;28;20207;-70
2021/06/20 00:56:26;;;;;;;0.00;0.00;;;;;;;;;;5103349;28;20543;-70
2021/06/20 00:59:01;;;;;;;0.00;0.00;;;;;;;;;;5102772;28;20219;-70
2021/06/20 01:01:28;;;;;;;0.00;0.00;;;;;;;;;;5088344;28;20258;-71
2021/06/20 01:03:54;;;;;;;0.00;0.00;;;;;;;;;;5082810;28;20207;-70
2021/06/20 01:06:21;;;;;;;0.00;0.00;;;;;;;;;;5095077;28;20267;-71
2021/06/20 01:08:47;;;;;;;0.00;0.00;;;;;;;;;;5098354;28;20199;-70
2021/06/20 01:11:13;;;;;;;0.00;0.00;;;;;;;;;;5082298;28;20435;-70
2021/06/20 01:13:39;;;;;;;0.10;0.10;;;;;;;;;;5085216;28;20414;-71
2021/06/20 01:16:07;;;;;;;0.00;0.00;;;;;;;;;;5102223;28;20218;-70
2021/06/20 01:18:33;;;;;;;0.00;0.00;;;;;;;;;;5101777;28;20230;-70
2021/06/20 01:21:00;;;;;;;0.00;0.00;;;;;;;;;;5089809;28;20198;-71
2021/06/20 01:23:27;;;;;;;0.00;0.00;;;;;;;;;;5102733;28;20232;-71
2021/06/20 01:25:55;;;;;;;0.00;0.00;;;;;;;;;;5088468;28;20244;-71
2021/06/20 01:28:26;;;;;;;0.00;0.00;;;;;;;;;;5094838;28;20207;-71
2021/06/20 01:30:57;;;;;;;0.00;0.00;;;;;;;;;;5100896;28;20215;-71
2021/06/20 01:33:23;;;;;;;0.00;0.00;;;;;;;;;;5093732;28;20201;-72
2021/06/20 01:35:50;;;;;;;0.00;0.00;;;;;;;;;;5106741;28;20202;-71
2021/06/20 01:38:16;;;;;;;0.00;0.00;;;;;;;;;;5106132;28;20313;-71
2021/06/20 01:40:44;;;;;;;0.00;0.00;;;;;;;;;;5106433;28;20202;-71
2021/06/20 01:43:11;;;;;;;0.00;0.00;;;;;;;;;;5106314;28;20274;-71
2021/06/20 01:45:38;;;;;;;0.00;0.00;;;;;;;;;;5096682;28;20208;-72
2021/06/20 01:48:05;;;;;;;0.00;0.00;;;;;;;;;;5100316;28;20199;-71
2021/06/20 01:50:32;;;;;;;0.00;0.00;;;;;;;;;;5086162;28;20207;-71
2021/06/20 01:53:03;;;;;;;0.00;0.00;;;;;;;;;;5100243;28;20203;-71
2021/06/20 01:55:29;;;;;;;0.00;0.00;;;;;;;;;;5105967;28;20252;-71
2021/06/20 01:57:56;;;;;;;0.00;0.00;;;;;;;;;;5105803;28;20215;-71
2021/06/20 02:00:23;;;;;;;0.00;0.00;;;;;;;;;;5105917;28;20244;-71
2021/06/20 02:02:49;;;;;;;0.00;0.00;;;;;;;;;;5106245;28;20207;-71
2021/06/20 02:05:15;;;;;;;0.00;0.00;;;;;;;;;;5106044;28;20536;-71
2021/06/20 02:07:42;;;;;;;0.00;0.00;;;;;;;;;;5100904;28;20202;-71
2021/06/20 02:10:10;;;;;;;0.00;0.00;;;;;;;;;;5091631;28;20215;-71
2021/06/20 02:12:36;;;;;;;0.00;0.00;;;;;;;;;;5106179;28;20191;-71
2021/06/20 02:15:05;;;;;;;0.00;0.00;;;;;;;;;;5105978;28;20210;-72
2021/06/20 02:17:33;;;;;;;0.00;0.00;;;;;;;;;;5106326;28;20502;-71
2021/06/20 02:20:00;;;;;;;0.00;0.00;;;;;;;;;;5105609;28;20227;-71
2021/06/20 02:22:27;;;;;;;0.00;0.00;;;;;;;;;;5105815;28;20206;-71
2021/06/20 02:24:54;;;;;;;0.00;0.00;;;;;;;;;;5094543;28;20253;-71
2021/06/20 02:27:21;;;;;;;0.00;0.00;;;;;;;;;;5088763;28;20393;-70
2021/06/20 02:29:48;;;;;;;0.00;0.00;;;;;;;;;;5105822;28;20232;-71
2021/06/20 02:32:16;;;;;;;0.10;0.10;;;;;;;;;;5093952;28;20207;-71
2021/06/20 02:34:43;;;;;;;0.00;0.00;;;;;;;;;;5085307;28;20203;-71
2021/06/20 02:37:09;;;;;;;0.00;0.00;;;;;;;;;;5095280;28;20203;-71
2021/06/20 02:39:36;;;;;;;0.00;0.00;;;;;;;;;;5105794;28;20222;-71
2021/06/20 02:42:02;;;;;;;0.00;0.00;;;;;;;;;;5105271;28;20195;-71
2021/06/20 02:44:29;;;;;;;0.00;0.00;;;;;;;;;;5102085;28;20295;-71
2021/06/20 02:46:57;;;;;;;0.00;0.00;;;;;;;;;;5094319;28;20275;-71
2021/06/20 02:49:25;;;;;;;0.00;0.00;;;;;;;;;;5096341;28;20195;-71
2021/06/20 02:51:51;;;;;;;0.00;0.00;;;;;;;;;;5098749;28;20543;-72
2021/06/20 02:54:17;;;;;;;0.00;0.00;;;;;;;;;;5101393;28;20514;-71
2021/06/20 02:56:43;;;;;;;0.00;0.00;;;;;;;;;;5102326;28;20443;-71
2021/06/20 02:59:10;;;;;;;0.00;0.00;;;;;;;;;;5098122;28;20340;-72
2021/06/20 03:01:36;;;;;;;0.00;0.00;;;;;;;;;;5096409;28;20241;-71
2021/06/20 03:04:02;;;;;;;0.00;0.00;;;;;;;;;;5093841;28;20273;-71
2021/06/20 03:06:30;;;;;;;0.00;0.00;;;;;;;;;;5096170;28;20237;-71
2021/06/20 03:08:57;;;;;;;0.00;0.00;;;;;;;;;;5093540;28;20314;-71
2021/06/20 03:11:23;;;;;;;0.00;0.00;;;;;;;;;;5097626;28;20218;-71
2021/06/20 03:13:49;;;;;;;0.00;0.00;;;;;;;;;;5095365;28;20222;-72
2021/06/20 03:16:17;;;;;;;0.00;0.00;;;;;;;;;;5099310;28;20199;-71
2021/06/20 03:18:44;;;;;;;0.00;0.00;;;;;;;;;;5098517;28;20303;-71
2021/06/20 03:21:10;;;;;;;0.00;0.00;;;;;;;;;;5084796;28;20204;-71
2021/06/20 03:23:38;;;;;;;0.00;0.00;;;;;;;;;;5087924;28;20211;-71
2021/06/20 03:26:04;;;;;;;0.00;0.00;;;;;;;;;;5104742;28;20231;-71
2021/06/20 03:28:30;;;;;;;0.00;0.00;;;;;;;;;;5103633;28;20199;-71
2021/06/20 03:30:57;;;;;;;0.00;0.00;;;;;;;;;;5104724;28;20549;-70
2021/06/20 03:33:23;;;;;;;0.00;0.00;;;;;;;;;;5090014;28;20248;-70
2021/06/20 03:35:49;;;;;;;0.10;0.10;;;;;;;;;;5103851;28;20207;-71
2021/06/20 03:38:16;;;;;;;0.00;0.00;;;;;;;;;;5104382;28;20203;-71
2021/06/20 03:40:43;;;;;;;0.00;0.00;;;;;;;;;;5104147;28;20209;-71
2021/06/20 03:43:09;;;;;;;0.00;0.00;;;;;;;;;;5104325;28;20248;-71
2021/06/20 03:45:36;;;;;;;0.00;0.00;;;;;;;;;;5104411;28;20271;-71
2021/06/20 03:48:02;;;;;;;0.00;0.00;;;;;;;;;;5104134;28;20195;-70
2021/06/20 03:50:29;;;;;;;0.00;0.00;;;;;;;;;;5103506;28;20264;-71
2021/06/20 03:52:55;;;;;;;0.00;0.00;;;;;;;;;;5097822;28;20234;-71
2021/06/20 03:55:21;;;;;;;0.00;0.00;;;;;;;;;;5096431;28;20379;-71
2021/06/20 03:57:48;;;;;;;0.00;0.00;;;;;;;;;;5089294;28;20195;-71
2021/06/20 04:00:15;;;;;;;0.00;0.00;;;;;;;;;;5103731;28;20226;-71
2021/06/20 04:02:41;;;;;;;0.00;0.00;;;;;;;;;;5101076;28;20502;-72
2021/06/20 04:05:09;;;;;;;0.05;0.05;;;;;;;;;;5092262;28;20215;-71
2021/06/20 04:07:35;;;;;;;0.00;0.00;;;;;;;;;;5103902;28;20202;-71
2021/06/20 04:10:03;;;;;;;0.00;0.00;;;;;;;;;;5103557;28;20207;-71
2021/06/20 04:12:29;;;;;;;0.00;0.00;;;;;;;;;;5091027;28;20278;-71
2021/06/20 04:14:57;;;;;;;0.00;0.00;;;;;;;;;;5102619;28;20269;-71
2021/06/20 04:17:23;;;;;;;0.00;0.00;;;;;;;;;;5103498;28;20214;-71
2021/06/20 04:19:50;;;;;;;0.00;0.00;;;;;;;;;;5103436;28;20219;-72
2021/06/20 04:22:16;;;;;;;0.00;0.00;;;;;;;;;;5103334;28;20199;-72
2021/06/20 04:24:42;;;;;;;0.10;0.10;;;;;;;;;;5089013;28;20418;-72
2021/06/20 04:27:09;;;;;;;0.00;0.00;;;;;;;;;;5103517;28;20202;-71
2021/06/20 04:29:36;;;;;;;0.00;0.00;;;;;;;;;;5103787;28;20502;-71
2021/06/20 04:32:04;;;;;;;0.00;0.00;;;;;;;;;;5103261;28;20230;-71
2021/06/20 04:34:30;;;;;;;0.00;0.00;;;;;;;;;;5091665;28;20367;-71
2021/06/20 04:36:56;;;;;;;0.03;0.03;;;;;;;;;;5086476;28;20210;-71
2021/06/20 04:39:23;;;;;;;0.00;0.00;;;;;;;;;;5103695;28;20222;-71
2021/06/20 04:41:50;;;;;;;0.00;0.00;;;;;;;;;;5103231;28;20206;-71
2021/06/20 04:47:00;;;;;;;0.00;0.00;;;;;;;;;;5102848;28;20221;-71
2021/06/20 04:49:27;;;;;;;0.00;0.00;;;;;;;;;;5103229;28;20199;-71
2021/06/20 04:51:53;;;;;;;0.00;0.00;;;;;;;;;;5102760;28;20206;-71
2021/06/20 04:54:20;;;;;;;0.30;0.30;;;;;;;;;;5095876;28;20257;-71
2021/06/20 04:56:46;;;;;;;0.00;0.00;;;;;;;;;;5082600;28;20246;-72
2021/06/20 04:59:12;;;;;;;0.00;0.00;;;;;;;;;;5102231;28;20268;-72
2021/06/20 05:01:39;;;;;;;0.00;0.00;;;;;;;;;;5102887;28;20240;-71
2021/06/20 05:04:05;;;;;;;0.00;0.00;;;;;;;;;;5099715;28;20200;-72
2021/06/20 05:06:33;;;;;;;0.00;0.00;;;;;;;;;;5092366;28;20199;-72
2021/06/20 05:08:59;;;;;;;0.00;0.00;;;;;;;;;;5091486;28;20265;-71
2021/06/20 05:11:26;;;;;;;0.00;0.00;;;;;;;;;;5086429;28;20279;-71
2021/06/20 05:13:52;;;;;;;0.00;0.00;;;;;;;;;;5093060;28;20380;-71
2021/06/20 05:16:18;;;;;;;0.00;0.00;;;;;;;;;;5098670;28;20228;-71
2021/06/20 05:18:44;;;;;;;0.00;0.00;;;;;;;;;;5102902;28;20498;-72
2021/06/20 05:21:11;;;;;;;0.00;0.00;;;;;;;;;;5103147;28;20240;-71
2021/06/20 05:23:38;;;;;;;0.00;0.00;;;;;;;;;;5096823;28;20325;-71
2021/06/20 05:26:05;;;;;;;0.00;0.00;;;;;;;;;;5095072;28;20272;-71
2021/06/20 05:28:31;;;;;;;0.00;0.00;;;;;;;;;;5088679;28;20202;-71
2021/06/20 05:30:57;;;;;;;0.00;0.00;;;;;;;;;;5092220;28;20414;-71
2021/06/20 05:33:23;;;;;;;0.00;0.00;;;;;;;;;;5099505;28;20202;-71
2021/06/20 05:35:49;;;;;;;0.00;0.00;;;;;;;;;;5102586;28;20203;-71
2021/06/20 05:38:16;;;;;;;0.00;0.00;;;;;;;;;;5088209;28;20229;-71
2021/06/20 05:40:44;;;;;;;0.00;0.00;;;;;;;;;;5102315;28;20250;-71
2021/06/20 05:43:10;;;;;;;0.00;0.00;;;;;;;;;;5102357;28;20209;-72
2021/06/20 05:45:37;;;;;;;0.00;0.00;;;;;;;;;;5082889;28;20200;-72
2021/06/20 05:48:03;;;;;;;0.00;0.00;;;;;;;;;;5093822;28;20494;-72
2021/06/20 05:50:29;;;;;;;0.00;0.00;;;;;;;;;;5098912;28;20196;-72
2021/06/20 05:52:56;;;;;;;0.00;0.00;;;;;;;;;;5092027;28;20210;-71
2021/06/20 05:55:22;;;;;;;0.00;0.00;;;;;;;;;;5102516;28;20252;-72
2021/06/20 05:57:50;;;;;;;0.00;0.00;;;;;;;;;;5102889;28;20240;-71
2021/06/20 06:00:17;;;;;;;0.00;0.00;;;;;;;;;;5102613;28;20392;-71
2021/06/20 06:02:43;;;;;;;0.00;0.00;;;;;;;;;;5102509;28;20202;-71
2021/06/20 06:05:10;;;;;;;0.00;0.00;;;;;;;;;;5102394;28;20198;-71
2021/06/20 06:07:37;;;;;;;0.00;0.00;;;;;;;;;;5098378;28;20275;-72
2021/06/20 06:10:03;;;;;;;0.00;0.00;;;;;;;;;;5102366;28;20214;-72
2021/06/20 06:12:29;;;;;;;0.00;0.00;;;;;;;;;;5103288;28;20241;-72
2021/06/20 06:14:57;;;;;;;0.00;0.00;;;;;;;;;;5106145;28;20198;-71
2021/06/20 06:17:24;;;;;;;0.00;0.00;;;;;;;;;;5105769;28;20207;-71
2021/06/20 06:19:51;;;;;;;0.00;0.00;;;;;;;;;;5105610;28;20241;-71
2021/06/20 06:22:17;;;;;;;0.00;0.00;;;;;;;;;;5105491;28;20198;-71
2021/06/20 06:24:44;;;;;;;0.00;0.00;;;;;;;;;;5105838;28;20234;-70
2021/06/20 06:27:10;;;;;;;0.00;0.00;;;;;;;;;;5098631;28;20433;-70
2021/06/20 06:29:36;;;;;;;0.00;0.00;;;;;;;;;;5098791;28;20490;-70
2021/06/20 06:32:04;;;;;;;0.00;0.00;;;;;;;;;;5091164;28;20203;-70
2021/06/20 06:34:31;;;;;;;0.00;0.00;;;;;;;;;;5093909;28;20250;-71
2021/06/20 06:36:57;;;;;;;0.10;0.10;;;;;;;;;;5099808;28;20249;-69
2021/06/20 06:39:23;;;;;;;0.00;0.00;;;;;;;;;;5095485;28;20410;-75
2021/06/20 06:41:49;;;;;;;0.08;0.08;;;;;;;;;;5091642;28;20209;-75
2021/06/20 06:44:15;;;;;;;0.00;0.00;;;;;;;;;;5097798;28;20200;-74
2021/06/20 06:46:42;;;;;;;0.00;0.00;;;;;;;;;;5097248;28;20203;-73
2021/06/20 06:49:12;;;;;;;0.00;0.00;;;;;;;;;;5096252;28;20233;-74
2021/06/20 06:51:38;;;;;;;1.35;1.15;;;;;;;;;;5096144;28;20241;-73
2021/06/20 06:54:05;;;;;;;0.00;0.00;;;;;;;;;;5096129;28;20200;-72
2021/06/20 06:56:31;;;;;;;0.00;0.00;;;;;;;;;;5097695;28;20220;-73
2021/06/20 06:58:59;;;;;;;0.00;0.00;;;;;;;;;;5103007;28;20248;-74
2021/06/20 07:01:25;;;;;;;0.00;0.00;;;;;;;;;;5092262;28;20505;-73
2021/06/20 07:03:52;;;;;;;0.00;0.00;;;;;;;;;;5093122;28;20199;-74
2021/06/20 07:06:20;;;;;;;0.00;0.00;;;;;;;;;;5100243;28;20256;-74
2021/06/20 07:08:46;;;;;;;0.05;0.05;;;;;;;;;;5100059;28;20493;-73
2021/06/20 07:11:12;;;;;;;0.00;0.00;;;;;;;;;;5099889;28;20206;-72
2021/06/20 07:13:39;;;;;;;0.00;0.00;;;;;;;;;;5092994;28;20257;-74
2021/06/20 07:16:05;;;;;;;0.00;0.00;;;;;;;;;;5090052;28;20530;-73
2021/06/20 07:18:31;;;;;;;0.00;0.00;;;;;;;;;;5097656;28;20211;-73
2021/06/20 07:20:59;;;;;;;0.00;0.00;;;;;;;;;;5086621;28;20227;-73
2021/06/20 07:23:26;;;;;;;0.00;0.00;;;;;;;;;;5088684;28;20208;-74
2021/06/20 07:25:53;;;;;;;0.00;0.00;;;;;;;;;;5094743;28;20260;-74
2021/06/20 07:28:19;;;;;;;0.00;0.00;;;;;;;;;;5091605;28;20211;-74
2021/06/20 07:30:48;;;;;;;0.00;0.00;;;;;;;;;;5090491;28;20236;-74
2021/06/20 07:33:15;;;;;;;0.00;0.00;;;;;;;;;;5096025;28;20198;-73
2021/06/20 07:35:41;;;;;;;0.00;0.00;;;;;;;;;;5097959;28;20253;-74
2021/06/20 07:38:07;;;;;;;0.00;0.00;;;;;;;;;;5092364;28;20257;-73
2021/06/20 07:40:35;;;;;;;0.00;0.00;;;;;;;;;;5101310;28;20218;-73
2021/06/20 07:43:01;;;;;;;0.00;0.00;;;;;;;;;;5097618;28;20248;-73
2021/06/20 07:45:27;;;;;;;0.00;0.00;;;;;;;;;;5097176;28;20464;-76
2021/06/20 07:47:54;;;;;;;0.00;0.00;;;;;;;;;;5094036;28;20261;-74
2021/06/20 07:50:20;;;;;;;0.00;0.00;;;;;;;;;;5090896;28;20236;-69
2021/06/20 07:52:47;;;;;;;0.00;0.00;;;;;;;;;;5092199;28;20248;-71
2021/06/20 07:55:13;;;;;;;0.00;0.00;;;;;;;;;;5094987;28;20264;-70
2021/06/20 07:57:41;;;;;;;0.60;0.60;;;;;;;;;;5098378;28;20203;-70
2021/06/20 08:00:09;;;;;;;0.00;0.00;;;;;;;;;;5093200;28;20229;-70
2021/06/20 08:02:35;;;;;;;0.00;0.00;;;;;;;;;;5088634;28;20215;-70
2021/06/20 08:05:01;;;;;;;0.00;0.00;;;;;;;;;;5096082;28;20199;-70
2021/06/20 08:07:27;;;;;;;0.00;0.00;;;;;;;;;;5095457;28;20211;-70
2021/06/20 08:09:56;;;;;;;0.00;0.00;;;;;;;;;;5099255;28;20191;-69
2021/06/20 08:12:22;;;;;;;0.00;0.00;;;;;;;;;;5088631;28;20216;-69
2021/06/20 08:14:50;;;;;;;0.00;0.00;;;;;;;;;;5094013;28;20240;-70
2021/06/20 08:17:16;;;;;;;0.00;0.00;;;;;;;;;;5097738;28;20380;-70
2021/06/20 08:19:42;;;;;;;0.30;0.30;;;;;;;;;;5094392;28;20207;-71
2021/06/20 08:22:09;;;;;;;0.00;0.00;;;;;;;;;;5087709;28;20203;-71
2021/06/20 08:24:35;;;;;;;0.00;0.00;;;;;;;;;;5092982;28;20231;-71
2021/06/20 08:27:01;;;;;;;0.10;0.10;;;;;;;;;;5090621;28;20218;-70
2021/06/20 08:29:28;;;;;;;0.00;0.00;;;;;;;;;;5095046;28;20246;-73
2021/06/20 08:31:56;;;;;;;0.00;0.00;;;;;;;;;;5100274;28;20195;-70
2021/06/20 08:34:22;;;;;;;0.00;0.00;;;;;;;;;;5097798;28;20490;-71
2021/06/20 08:36:48;;;;;;;0.00;0.00;;;;;;;;;;5095602;28;20211;-69
2021/06/20 08:39:15;;;;;;;0.00;0.00;;;;;;;;;;5096396;28;20312;-69
2021/06/20 08:41:42;;;;;;;0.00;0.00;;;;;;;;;;5097931;28;20268;-68
2021/06/20 08:44:18;;;;;;;0.00;0.00;;;;;;;;;;5093386;28;20244;-67
2021/06/20 08:46:44;;;;;;;0.00;0.00;;;;;;;;;;5096629;28;20301;-65
2021/06/20 08:49:12;;;;;;;0.25;0.25;;;;;;;;;;5090470;28;20203;-67
2021/06/20 08:51:39;;;;;;;0.15;0.15;;;;;;;;;;5096625;28;20305;-74
2021/06/20 08:54:05;;;;;;;0.00;0.00;;;;;;;;;;5095491;28;20203;-72
2021/06/20 08:56:31;;;;;;;0.00;0.00;;;;;;;;;;5095514;28;20257;-72
2021/06/20 08:58:58;;;;;;;0.00;0.00;;;;;;;;;;5094351;28;20204;-72
2021/06/20 09:01:25;;;;;;;0.00;0.00;;;;;;;;;;5098487;28;20223;-73
2021/06/20 09:03:51;;;;;;;0.00;0.00;;;;;;;;;;5091524;28;20305;-72
2021/06/20 09:06:19;;;;;;;0.00;0.00;;;;;;;;;;5093189;28;20253;-73
2021/06/20 09:08:46;;;;;;;0.00;0.00;;;;;;;;;;5088965;28;20245;-73
2021/06/20 09:11:22;;;;;;;0.00;0.00;;;;;;;;;;5092581;28;20234;-71
2021/06/20 09:13:48;;;;;;;0.00;0.00;;;;;;;;;;5095050;28;20239;-71
2021/06/20 09:16:14;;;;;;;0.00;0.00;;;;;;;;;;5090822;28;20223;-71
2021/06/20 09:18:48;;;;;;;0.00;0.00;;;;;;;;;;5088567;28;20485;-71
2021/06/20 09:21:15;;;;;;;0.00;0.00;;;;;;;;;;5085437;28;20393;-70
2021/06/20 09:23:42;;;;;;;0.00;0.00;;;;;;;;;;5089762;28;20364;-71
2021/06/20 09:26:09;;;;;;;0.20;0.20;;;;;;;;;;5087698;28;20223;-70
2021/06/20 09:28:36;;;;;;;0.00;0.00;;;;;;;;;;5091146;28;20203;-71
2021/06/20 09:31:03;;;;;;;0.10;0.10;;;;;;;;;;5093040;28;20204;-70
2021/06/20 09:33:30;;;;;;;0.00;0.00;;;;;;;;;;5095748;28;20214;-71
2021/06/20 09:35:57;;;;;;;0.00;0.00;;;;;;;;;;5101032;28;20206;-70
2021/06/20 09:38:24;;;;;;;0.00;0.00;;;;;;;;;;5095462;28;20219;-69
2021/06/20 09:40:53;;;;;;;0.00;0.00;;;;;;;;;;5095458;28;20239;-70
2021/06/20 09:43:20;;;;;;;0.00;0.00;;;;;;;;;;5096026;28;20305;-68
2021/06/20 09:45:47;;;;;;;0.10;0.10;;;;;;;;;;5090056;28;20199;-69
2021/06/20 09:48:23;;;;;;;0.00;0.00;;;;;;;;;;5092857;28;20207;-69
2021/06/20 09:50:49;;;;;;;0.00;0.00;;;;;;;;;;5100290;28;20198;-69
2021/06/20 09:53:15;;;;;;;0.00;0.00;;;;;;;;;;5106474;28;20206;-68
2021/06/20 09:55:41;;;;;;;0.00;0.00;;;;;;;;;;5090196;28;20199;-70
2021/06/20 09:58:09;;;;;;;0.00;0.00;;;;;;;;;;5095004;28;20540;-69
2021/06/20 10:00:39;;;;;;;0.20;0.20;;;;;;;;;;5094681;28;20235;-69
2021/06/20 10:03:06;;;;;;;0.00;0.00;;;;;;;;;;5100475;28;20198;-71
2021/06/20 10:05:32;;;;;;;0.00;0.00;;;;;;;;;;5099902;28;20207;-72
2021/06/20 10:08:00;;;;;;;0.03;0.03;;;;;;;;;;5089641;28;20200;-75
2021/06/20 10:10:27;;;;;;;0.00;0.00;;;;;;;;;;5103961;28;20295;-75
2021/06/20 10:12:53;;;;;;;0.00;0.00;;;;;;;;;;5092629;28;20265;-75
2021/06/20 10:15:20;;;;;;;0.00;0.00;;;;;;;;;;5097754;28;20211;-72
2021/06/20 10:17:54;;;;;;;0.00;0.00;;;;;;;;;;5097974;28;20206;-74
2021/06/20 10:20:20;;;;;;;0.50;0.50;;;;;;;;;;5103630;28;20194;-74
2021/06/20 10:22:48;;;;;;;0.00;0.00;;;;;;;;;;5096757;28;20206;-75
2021/06/20 10:25:24;;;;;;;0.00;0.00;;;;;;;;;;5093595;28;20384;-73
2021/06/20 10:27:57;;;;;;;0.00;0.00;;;;;;;;;;5096458;28;20195;-72
2021/06/20 10:30:25;;;;;;;0.00;0.00;;;;;;;;;;5094839;28;20203;-67
2021/06/20 10:32:52;;;;;;;0.00;0.00;;;;;;;;;;5097021;28;20264;-72
2021/06/20 10:35:20;;;;;;;0.00;0.00;;;;;;;;;;5096735;28;20205;-72
2021/06/20 10:37:46;;;;;;;0.40;0.40;;;;;;;;;;5095292;28;20203;-71
2021/06/20 10:40:20;;;;;;;0.75;0.65;;;;;;;;;;5099449;28;20199;-72
2021/06/20 10:42:46;;;;;;;0.00;0.00;;;;;;;;;;5090254;28;20230;-73
2021/06/20 10:45:13;;;;;;;0.00;0.00;;;;;;;;;;5099359;28;20508;-71
2021/06/20 10:47:42;;;;;;;0.00;0.00;;;;;;;;;;5094256;28;20249;-72
2021/06/20 10:50:09;;;;;;;0.00;0.00;;;;;;;;;;5092377;28;20203;-72
2021/06/20 10:52:36;;;;;;;0.00;0.00;;;;;;;;;;5099914;28;20217;-73
2021/06/20 10:55:04;;;;;;;0.00;0.00;;;;;;;;;;5105073;28;20539;-72
2021/06/20 10:57:30;;;;;;;0.00;0.00;;;;;;;;;;5097320;28;20207;-72
2021/06/20 10:59:57;;;;;;;0.00;0.00;;;;;;;;;;5098572;28;20454;-72
2021/06/20 11:02:24;;;;;;;0.03;0.03;;;;;;;;;;5096895;28;20293;-72
2021/06/20 11:04:52;;;;;;;0.00;0.00;;;;;;;;;;5094321;28;20298;-73
2021/06/20 11:07:26;;;;;;;0.00;0.00;;;;;;;;;;5099266;28;20252;-73
2021/06/20 11:09:53;;;;;;;0.00;0.00;;;;;;;;;;5104901;28;20198;-71
2021/06/20 11:12:19;;;;;;;0.00;0.00;;;;;;;;;;5101823;28;20195;-73
2021/06/20 11:14:46;;;;;;;1.15;0.30;;;;;;;;;;5089960;28;20199;-73
2021/06/20 11:17:13;;;;;;;0.00;0.00;;;;;;;;;;5096319;28;20203;-71
2021/06/20 11:19:39;;;;;;;0.00;0.00;;;;;;;;;;5088884;28;20257;-72
2021/06/20 11:22:08;;;;;;;0.10;0.10;;;;;;;;;;5092607;28;20269;-73
2021/06/20 11:24:35;;;;;;;0.00;0.00;;;;;;;;;;5090682;28;20260;-72
2021/06/20 11:27:03;;;;;;;0.75;0.75;;;;;;;;;;5099439;28;20240;-72
2021/06/20 11:29:37;;;;;;;0.00;0.00;;;;;;;;;;5096876;28;20203;-72
2021/06/20 11:32:04;;;;;;;0.00;0.00;;;;;;;;;;5100580;28;20268;-73
2021/06/20 11:34:30;;;;;;;0.00;0.00;;;;;;;;;;5098457;28;20203;-72
2021/06/20 11:36:56;;;;;;;0.00;0.00;;;;;;;;;;5097288;28;20265;-71
2021/06/20 11:39:24;;;;;;;0.00;0.00;;;;;;;;;;5095720;28;20367;-73
2021/06/20 11:41:51;;;;;;;0.25;0.25;;;;;;;;;;5096596;28;20249;-72
2021/06/20 11:44:18;;;;;;;0.30;0.30;;;;;;;;;;5092325;28;20199;-73
2021/06/20 11:46:45;;;;;;;0.00;0.00;;;;;;;;;;5095462;28;20211;-74
2021/06/20 11:49:13;;;;;;;0.20;0.20;;;;;;;;;;5094327;28;20203;-73
2021/06/20 11:51:40;;;;;;;0.03;0.03;;;;;;;;;;5094650;28;20486;-71
2021/06/20 11:54:17;;;;;;;0.10;0.10;;;;;;;;;;5088645;28;20210;-74
2021/06/20 11:56:46;;;;;;;0.00;0.00;;;;;;;;;;5088746;28;20203;-74
2021/06/20 11:59:13;;;;;;;0.00;0.00;;;;;;;;;;5090227;28;20213;-72
2021/06/20 12:01:44;;;;;;;0.00;0.00;;;;;;;;;;5088537;28;20537;-72
2021/06/20 12:04:10;;;;;;;0.00;0.00;;;;;;;;;;5098431;28;20447;-72
2021/06/20 12:06:37;;;;;;;0.22;0.22;;;;;;;;;;5099363;28;20203;-73
2021/06/20 12:09:03;;;;;;;0.00;0.00;;;;;;;;;;5085492;28;20207;-74
2021/06/20 12:11:30;;;;;;;0.00;0.00;;;;;;;;;;5090755;28;20206;-74
2021/06/20 12:13:58;;;;;;;0.03;0.03;;;;;;;;;;5088002;28;20256;-73
2021/06/20 12:16:24;;;;;;;0.13;0.13;;;;;;;;;;5096197;28;20207;-74
2021/06/20 12:18:50;;;;;;;0.00;0.00;;;;;;;;;;5100723;28;20240;-74
2021/06/20 12:21:23;;;;;;;0.00;0.00;;;;;;;;;;5097111;28;20264;-73
2021/06/20 12:23:53;;;;;;;0.00;0.00;;;;;;;;;;5097967;28;20241;-73
2021/06/20 12:26:24;;;;;;;8.20;7.55;;;;;;;;;;5092380;28;20400;-73
2021/06/20 12:28:50;;;;;;;0.00;0.00;;;;;;;;;;5089751;28;20198;-74
2021/06/20 12:31:18;;;;;;;0.00;0.00;;;;;;;;;;5096988;28;20374;-73
2021/06/20 12:33:44;;;;;;;0.00;0.00;;;;;;;;;;5091532;28;20483;-74
2021/06/20 12:36:11;;;;;;;0.22;0.20;;;;;;;;;;5090011;28;20199;-74
2021/06/20 12:38:38;;;;;;;0.05;0.05;;;;;;;;;;5095588;28;20226;-74
2021/06/20 12:41:05;;;;;;;0.32;0.32;;;;;;;;;;5100590;28;20512;-74
2021/06/20 12:43:31;;;;;;;0.00;0.00;;;;;;;;;;5088325;28;20204;-74
2021/06/20 12:46:02;;;;;;;0.15;0.15;;;;;;;;;;5085960;28;20203;-74
2021/06/20 12:48:34;;;;;;;0.00;0.00;;;;;;;;;;5096596;28;20210;-74
2021/06/20 12:51:00;;;;;;;0.32;0.32;;;;;;;;;;5091744;28;20203;-73
2021/06/20 12:53:27;;;;;;;0.00;0.00;;;;;;;;;;5089448;28;20200;-74
2021/06/20 12:55:53;;;;;;;0.00;0.00;;;;;;;;;;5092150;28;20271;-74
2021/06/20 12:58:20;;;;;;;0.00;0.00;;;;;;;;;;5089514;28;20212;-72
2021/06/20 13:00:56;;;;;;;0.00;0.00;;;;;;;;;;5086578;28;20363;-73
2021/06/20 13:03:24;;;;;;;0.00;0.00;;;;;;;;;;5093744;28;20217;-72
2021/06/20 13:05:52;;;;;;;0.43;0.43;;;;;;;;;;5091625;28;20254;-74
2021/06/20 13:08:18;;;;;;;0.00;0.00;;;;;;;;;;5091272;28;20278;-74
2021/06/20 13:10:46;;;;;;;0.00;0.00;;;;;;;;;;5102847;28;20219;-74
2021/06/20 13:13:12;;;;;;;0.00;0.00;;;;;;;;;;5098175;28;20497;-74
2021/06/20 13:15:39;;;;;;;0.00;0.00;;;;;;;;;;5095180;28;20257;-73
2021/06/20 13:18:06;;;;;;;0.00;0.00;;;;;;;;;;5097166;28;20452;-73
2021/06/20 13:20:33;;;;;;;0.00;0.00;;;;;;;;;;5103103;28;20202;-74
2021/06/20 13:23:02;;;;;;;0.00;0.00;;;;;;;;;;5093558;28;20529;-74
2021/06/20 13:25:28;;;;;;;0.10;0.10;;;;;;;;;;5090684;28;20410;-74
2021/06/20 13:27:54;;;;;;;0.00;0.00;;;;;;;;;;5089511;28;20199;-73
2021/06/20 13:30:21;;;;;;;0.00;0.00;;;;;;;;;;5106890;28;20195;-74
2021/06/20 13:32:48;;;;;;;0.00;0.00;;;;;;;;;;5100640;28;20196;-74
2021/06/20 13:35:15;;;;;;;0.00;0.00;;;;;;;;;;5105491;28;20207;-74
2021/06/20 13:37:42;;;;;;;0.00;0.00;;;;;;;;;;5096810;28;20198;-73
2021/06/20 13:40:12;;;;;;;0.00;0.00;;;;;;;;;;5093353;28;20198;-73
2021/06/20 13:42:39;;;;;;;0.00;0.00;;;;;;;;;;5101343;28;20263;-73
2021/06/20 13:45:06;;;;;;;0.00;0.00;;;;;;;;;;5099419;28;20207;-74
2021/06/20 13:47:33;;;;;;;0.00;0.00;;;;;;;;;;5090389;28;20294;-74
2021/06/20 13:49:59;;;;;;;0.00;0.00;;;;;;;;;;5086809;28;20253;-74
2021/06/20 13:52:25;;;;;;;0.00;0.00;;;;;;;;;;5092733;28;20199;-73
2021/06/20 13:54:55;;;;;;;0.00;0.00;;;;;;;;;;5102890;28;20403;-73
2021/06/20 13:57:23;;;;;;;0.00;0.00;;;;;;;;;;5097908;28;20267;-74
2021/06/20 13:59:49;;;;;;;0.00;0.00;;;;;;;;;;5096955;28;20214;-74
2021/06/20 14:02:16;;;;;;;0.00;0.00;;;;;;;;;;5096053;28;20219;-73
2021/06/20 14:04:43;;;;;;;0.00;0.00;;;;;;;;;;5102627;28;20503;-74
2021/06/20 14:07:09;;;;;;;0.00;0.00;;;;;;;;;;5095469;28;20199;-74
2021/06/20 14:09:36;;;;;;;0.00;0.00;;;;;;;;;;5102723;28;20199;-74
2021/06/20 14:12:02;;;;;;;0.00;0.00;;;;;;;;;;5106446;28;20228;-74
2021/06/20 14:14:29;;;;;;;0.03;0.03;;;;;;;;;;5092057;28;20210;-74
2021/06/20 14:16:56;;;;;;;0.00;0.00;;;;;;;;;;5099596;28;20200;-74
2021/06/20 14:19:22;;;;;;;0.00;0.00;;;;;;;;;;5099295;28;20294;-74
2021/06/20 14:21:48;;;;;;;0.00;0.00;;;;;;;;;;5100720;28;20223;-74
2021/06/20 14:24:15;;;;;;;0.00;0.00;;;;;;;;;;5097339;28;20203;-74
2021/06/20 14:26:41;;;;;;;0.00;0.00;;;;;;;;;;5106457;28;20199;-74
2021/06/20 14:29:07;;;;;;;0.00;0.00;;;;;;;;;;5106008;28;20199;-74
2021/06/20 14:31:35;;;;;;;0.00;0.00;;;;;;;;;;5091178;28;20207;-74
2021/06/20 14:34:01;;;;;;;0.00;0.00;;;;;;;;;;5105302;28;20225;-74
2021/06/20 14:36:27;;;;;;;0.00;0.00;;;;;;;;;;5099337;28;20226;-74
2021/06/20 14:38:54;;;;;;;0.00;0.00;;;;;;;;;;5099635;28;20394;-73
2021/06/20 14:41:21;;;;;;;0.00;0.00;;;;;;;;;;5097119;28;20218;-74
2021/06/20 14:43:47;;;;;;;0.00;0.00;;;;;;;;;;5096427;28;20227;-73